Time;durP1;ratioP1;P1;durP2;ratioP2;P2;SDS_P1;SDS_P2;PMS_P1;PMS_P2;Temp;Humidity;BMP_temperature;BMP_pressure;BME280_temperature;BME280_humidity;BME280_pressure;Samples;Min_cycle;Max_cycle;Signal;HPM_P1;HPM_P2
2023/11/06 00:00:21;;;;;;;11.23;10.93;;;9.80;1.00;;;;;;5075431;28;20486;-80
2023/11/06 00:02:49;;;;;;;11.70;11.40;;;9.80;1.00;;;;;;5075546;28;20446;-80
2023/11/06 00:05:17;;;;;;;12.00;11.47;;;9.80;1.00;;;;;;5068881;28;20487;-78
2023/11/06 00:07:46;;;;;;;12.00;11.50;;;9.80;1.00;;;;;;5072827;28;20963;-80
2023/11/06 00:10:15;;;;;;;11.63;11.17;;;9.80;1.00;;;;;;5076235;28;20489;-79
2023/11/06 00:12:45;;;;;;;11.35;10.95;;;9.80;94.30;;;;;;5073294;28;20444;-82
2023/11/06 00:15:15;;;;;;;11.30;11.00;;;9.80;99.90;;;;;;5071895;28;20254;-79
2023/11/06 00:17:43;;;;;;;11.60;11.30;;;9.80;99.90;;;;;;5074880;28;20509;-81
2023/11/06 00:20:12;;;;;;;11.80;11.40;;;9.90;1.00;;;;;;5070880;28;20451;-80
2023/11/06 00:22:40;;;;;;;11.50;11.20;;;9.90;1.00;;;;;;5071176;28;20536;-79
2023/11/06 00:25:10;;;;;;;11.30;10.70;;;9.90;1.00;;;;;;5073389;28;20473;-81
2023/11/06 00:27:39;;;;;;;11.33;11.03;;;9.90;99.90;;;;;;5071357;28;20672;-81
2023/11/06 00:30:09;;;;;;;11.00;10.40;;;9.90;1.00;;;;;;5070382;28;20875;-78
2023/11/06 00:32:38;;;;;;;12.03;11.43;;;9.90;99.90;;;;;;5075579;28;20441;-82
2023/11/06 00:35:09;;;;;;;10.67;10.40;;;9.90;99.90;;;;;;5074560;28;20482;-78
2023/11/06 00:37:37;;;;;;;10.50;10.20;;;9.90;99.90;;;;;;5075553;28;20826;-78
2023/11/06 00:40:09;;;;;;;11.23;10.53;;;9.80;99.90;;;;;;5075271;28;20944;-80
2023/11/06 00:42:37;;;;;;;10.47;10.20;;;9.80;99.90;;;;;;5077246;28;20457;-81
2023/11/06 00:45:08;;;;;;;10.70;10.40;;;9.90;28.90;;;;;;5074988;28;20781;-80
2023/11/06 00:47:36;;;;;;;12.00;11.10;;;9.80;1.00;;;;;;5072380;28;20445;-80
2023/11/06 00:50:06;;;;;;;11.20;10.63;;;9.80;1.00;;;;;;5078730;28;20449;-83
2023/11/06 00:52:36;;;;;;;10.57;9.97;;;9.80;99.90;;;;;;5075272;28;20454;-82
2023/11/06 00:55:04;;;;;;;12.37;11.57;;;9.80;99.90;;;;;;5076282;28;20547;-80
2023/11/06 00:57:33;;;;;;;10.23;9.93;;;9.70;99.90;;;;;;5078999;28;20465;-80
2023/11/06 01:00:04;;;;;;;11.10;10.77;;;9.70;1.00;;;;;;5076973;28;21256;-81
2023/11/06 01:02:34;;;;;;;10.30;9.90;;;9.70;1.00;;;;;;5076850;28;21011;-82
2023/11/06 01:05:02;;;;;;;10.80;10.20;;;9.60;99.90;;;;;;5073559;28;20485;-81
2023/11/06 01:07:31;;;;;;;10.90;10.20;;;9.60;1.00;;;;;;5073755;28;20492;-83
2023/11/06 01:09:59;;;;;;;11.00;10.30;;;9.70;1.00;;;;;;5081167;28;20458;-81
2023/11/06 01:12:27;;;;;;;10.10;9.80;;;9.70;99.90;;;;;;5073651;28;21217;-80
2023/11/06 01:14:55;;;;;;;10.60;10.20;;;9.70;99.90;;;;;;5077867;28;20538;-81
2023/11/06 01:17:25;;;;;;;10.43;10.13;;;9.70;99.90;;;;;;5080135;28;20522;-80
2023/11/06 01:19:55;;;;;;;10.43;9.93;;;9.70;1.00;;;;;;5078595;28;20451;-77
2023/11/06 01:22:23;;;;;;;10.00;9.80;;;9.70;23.20;;;;;;5087185;28;20832;-81
2023/11/06 01:25:07;;;;;;;10.60;10.10;;;9.80;1.00;;;;;;5081329;28;20462;-78
2023/11/06 01:27:35;;;;;;;10.93;10.33;;;9.70;1.00;;;;;;5073281;28;20453;-81
2023/11/06 01:30:04;;;;;;;10.40;10.10;;;9.70;1.00;;;;;;5077207;28;20492;-81
2023/11/06 01:32:32;;;;;;;10.40;9.90;;;9.70;1.00;;;;;;5074016;28;20498;-78
2023/11/06 01:35:02;;;;;;;11.23;10.73;;;9.60;1.00;;;;;;5078289;28;20496;-79
2023/11/06 01:37:30;;;;;;;11.07;10.67;;;9.60;1.00;;;;;;5073696;28;20455;-80
2023/11/06 01:39:58;;;;;;;10.63;10.20;;;9.50;1.00;;;;;;5077402;28;20455;-81
2023/11/06 01:42:27;;;;;;;10.53;10.23;;;9.50;1.00;;;;;;5078582;28;20444;-78
2023/11/06 01:44:57;;;;;;;10.07;9.70;;;9.60;1.00;;;;;;5077175;28;21245;-82
2023/11/06 01:47:26;;;;;;;10.30;10.00;;;9.50;1.00;;;;;;5070166;28;20458;-80
2023/11/06 01:49:54;;;;;;;10.90;10.40;;;9.50;99.90;;;;;;5080630;28;20468;-82
2023/11/06 01:52:25;;;;;;;10.43;10.23;;;9.50;99.90;;;;;;5078062;28;20528;-80
2023/11/06 01:54:53;;;;;;;10.90;10.60;;;9.50;1.00;;;;;;5073831;28;20447;-82
2023/11/06 01:57:22;;;;;;;10.40;10.10;;;9.60;99.90;;;;;;5080193;28;20443;-81
2023/11/06 01:59:51;;;;;;;10.90;10.60;;;9.50;1.00;;;;;;5075822;28;20542;-79
2023/11/06 02:02:23;;;;;;;10.87;10.50;;;9.50;1.00;;;;;;5076544;28;20557;-82
2023/11/06 02:04:52;;;;;;;11.20;10.53;;;9.50;99.90;;;;;;5073786;28;20988;-78
2023/11/06 02:07:21;;;;;;;11.00;10.70;;;9.50;99.90;;;;;;5071254;28;20949;-81
2023/11/06 02:09:50;;;;;;;11.47;11.07;;;9.60;1.00;;;;;;5074098;28;20459;-79
2023/11/06 02:12:18;;;;;;;11.37;10.97;;;9.60;1.00;;;;;;5074614;28;20495;-77
2023/11/06 02:14:51;;;;;;;11.77;11.03;;;9.60;99.90;;;;;;5076934;28;20454;-80
2023/11/06 02:17:20;;;;;;;10.90;10.60;;;9.60;1.00;;;;;;5078361;28;20824;-80
2023/11/06 02:19:49;;;;;;;11.27;10.90;;;9.60;3.40;;;;;;5078777;28;20463;-80
2023/11/06 02:22:20;;;;;;;10.90;10.50;;;9.50;1.00;;;;;;5080135;28;20470;-79
2023/11/06 02:24:50;;;;;;;11.10;10.57;;;9.60;1.00;;;;;;5078206;28;20452;-83
2023/11/06 02:27:19;;;;;;;10.97;10.60;;;9.50;1.00;;;;;;5077983;28;20470;-78
2023/11/06 02:29:48;;;;;;;10.90;10.60;;;9.50;1.00;;;;;;5080458;28;20537;-78
2023/11/06 02:32:16;;;;;;;10.90;10.60;;;9.50;99.90;;;;;;5079675;28;20486;-80
2023/11/06 02:34:46;;;;;;;10.70;10.40;;;9.50;99.90;;;;;;5076957;28;20447;-79
2023/11/06 02:37:14;;;;;;;12.00;11.33;;;9.50;99.90;;;;;;5080101;28;20455;-85
2023/11/06 02:39:43;;;;;;;11.10;10.77;;;9.50;99.90;;;;;;5081445;28;20540;-80
2023/11/06 02:42:13;;;;;;;10.97;10.70;;;9.50;1.00;;;;;;5078199;28;21023;-83
2023/11/06 02:44:41;;;;;;;11.00;10.70;;;9.50;99.90;;;;;;5084006;28;20477;-81
2023/11/06 02:47:10;;;;;;;11.20;10.90;;;9.40;1.00;;;;;;5079504;28;20456;-79
2023/11/06 02:49:38;;;;;;;11.00;10.70;;;9.40;99.90;;;;;;5077623;28;20991;-81
2023/11/06 02:52:06;;;;;;;11.10;10.80;;;9.40;1.00;;;;;;5082720;28;20474;-80
2023/11/06 02:54:35;;;;;;;11.07;10.60;;;9.40;99.90;;;;;;5086056;28;21248;-81
2023/11/06 02:57:04;;;;;;;10.60;10.40;;;9.30;99.90;;;;;;5078599;28;20458;-79
2023/11/06 02:59:34;;;;;;;11.40;11.00;;;9.30;1.00;;;;;;5082761;28;20550;-79
2023/11/06 03:02:02;;;;;;;11.23;10.90;;;9.20;1.00;;;;;;5073271;28;20470;-80
2023/11/06 03:04:32;;;;;;;11.57;11.17;;;9.20;1.00;;;;;;5079783;28;20454;-83
2023/11/06 03:07:00;;;;;;;11.47;11.17;;;9.20;99.90;;;;;;5079372;28;20455;-80
2023/11/06 03:09:29;;;;;;;11.17;10.93;;;9.30;1.00;;;;;;5079703;28;20558;-80
2023/11/06 03:11:57;;;;;;;10.93;10.73;;;9.30;99.90;;;;;;5078218;28;20507;-79
2023/11/06 03:14:25;;;;;;;11.90;11.47;;;9.30;1.00;;;;;;5076823;28;20886;-80
2023/11/06 03:16:55;;;;;;;11.30;10.93;;;9.20;99.90;;;;;;5079276;28;20447;-79
2023/11/06 03:19:23;;;;;;;11.30;10.90;;;9.30;99.90;;;;;;5076191;28;21056;-76
2023/11/06 03:21:52;;;;;;;10.90;10.60;;;9.20;99.90;;;;;;5076624;28;20479;-80
2023/11/06 03:24:20;;;;;;;11.37;11.07;;;9.20;1.00;;;;;;5079634;28;21071;-80
2023/11/06 03:26:48;;;;;;;11.43;11.03;;;9.30;99.90;;;;;;5077411;28;20462;-83
2023/11/06 03:29:17;;;;;;;11.27;10.97;;;9.30;1.00;;;;;;5081268;28;20473;-80
2023/11/06 03:31:45;;;;;;;11.63;11.10;;;9.30;99.90;;;;;;5079908;28;20482;-80
2023/11/06 03:34:15;;;;;;;11.20;10.90;;;9.40;99.90;;;;;;5077467;28;20482;-79
2023/11/06 03:36:45;;;;;;;11.53;11.13;;;9.40;1.00;;;;;;5075332;28;20470;-81
2023/11/06 03:39:14;;;;;;;11.60;11.20;;;9.40;1.00;;;;;;5075385;28;20451;-81
2023/11/06 03:41:43;;;;;;;11.93;11.53;;;9.30;29.00;;;;;;5077680;28;20509;-80
2023/11/06 03:44:12;;;;;;;11.30;10.90;;;9.30;1.00;;;;;;5080708;28;20512;-77
2023/11/06 03:46:41;;;;;;;11.60;11.20;;;9.30;69.80;;;;;;5073611;28;20458;-79
2023/11/06 03:49:09;;;;;;;11.77;11.23;;;9.30;1.00;;;;;;5075530;28;20455;-79
2023/11/06 03:51:39;;;;;;;11.50;11.20;;;9.30;99.90;;;;;;5072971;28;20471;-80
2023/11/06 03:54:07;;;;;;;11.33;11.00;;;9.30;99.90;;;;;;5078458;28;20984;-81
2023/11/06 03:56:35;;;;;;;11.87;11.27;;;9.40;51.10;;;;;;5074894;28;20451;-80
2023/11/06 03:59:04;;;;;;;12.00;11.40;;;9.40;99.90;;;;;;5072498;28;20450;-78
2023/11/06 04:01:35;;;;;;;11.57;11.20;;;9.40;99.90;;;;;;5076245;28;20505;-78
2023/11/06 04:04:04;;;;;;;11.70;11.30;;;9.50;1.00;;;;;;5077255;28;21089;-78
2023/11/06 04:06:33;;;;;;;12.10;11.60;;;9.40;99.90;;;;;;5072104;28;20454;-80
2023/11/06 04:09:03;;;;;;;12.03;11.53;;;9.40;1.00;;;;;;5072489;28;20975;-79
2023/11/06 04:11:32;;;;;;;11.93;11.70;;;9.50;99.90;;;;;;5069975;28;20479;-83
2023/11/06 04:14:00;;;;;;;11.83;11.53;;;9.50;1.00;;;;;;5076513;28;20510;-77
2023/11/06 04:16:32;;;;;;;12.20;11.80;;;9.50;1.00;;;;;;5074530;28;20584;-81
2023/11/06 04:19:01;;;;;;;12.60;11.93;;;9.50;1.00;;;;;;5074043;28;20465;-79
2023/11/06 04:21:29;;;;;;;11.90;11.60;;;9.50;1.00;;;;;;5075291;28;20498;-80
2023/11/06 04:23:57;;;;;;;11.90;11.50;;;9.50;1.00;;;;;;5070596;28;20443;-77
2023/11/06 04:26:27;;;;;;;11.90;11.60;;;9.50;99.90;;;;;;5072156;28;20451;-79
2023/11/06 04:28:55;;;;;;;12.63;12.00;;;9.50;99.90;;;;;;5073610;28;20455;-80
2023/11/06 04:31:24;;;;;;;12.20;11.80;;;9.40;99.90;;;;;;5072903;28;20466;-79
2023/11/06 04:33:52;;;;;;;11.73;11.47;;;9.40;99.90;;;;;;5072051;28;20564;-79
2023/11/06 04:36:21;;;;;;;12.10;11.80;;;9.40;1.00;;;;;;5074992;28;20520;-78
2023/11/06 04:38:50;;;;;;;11.60;11.40;;;9.40;99.90;;;;;;5075364;28;20463;-79
2023/11/06 04:41:19;;;;;;;11.90;11.60;;;9.40;99.90;;;;;;5075092;28;20569;-81
2023/11/06 04:43:48;;;;;;;12.93;12.33;;;9.40;1.00;;;;;;5076460;28;20438;-80
2023/11/06 04:46:16;;;;;;;12.40;12.00;;;9.40;99.90;;;;;;5073778;28;20462;-78
2023/11/06 04:48:45;;;;;;;12.47;12.17;;;9.40;1.00;;;;;;5076059;28;20478;-79
2023/11/06 04:51:15;;;;;;;12.60;12.27;;;9.40;1.00;;;;;;5079648;28;20576;-78
2023/11/06 04:53:43;;;;;;;12.60;12.20;;;9.30;1.00;;;;;;5078277;28;20463;-78
2023/11/06 04:56:12;;;;;;;12.10;11.70;;;9.30;1.00;;;;;;5077691;28;21450;-79
2023/11/06 04:58:40;;;;;;;12.40;12.00;;;9.30;74.90;;;;;;5077183;28;20468;-77
2023/11/06 05:01:09;;;;;;;12.40;11.80;;;9.30;1.00;;;;;;5071550;28;20485;-80
2023/11/06 05:03:38;;;;;;;11.63;11.40;;;9.30;1.00;;;;;;5076927;28;20442;-80
2023/11/06 05:06:08;;;;;;;12.67;12.33;;;9.30;99.90;;;;;;5078941;28;20470;-81
2023/11/06 05:08:37;;;;;;;12.93;12.50;;;9.30;1.00;;;;;;5081631;28;20457;-82
2023/11/06 05:11:06;;;;;;;12.30;11.90;;;9.40;1.00;;;;;;5079937;28;20467;-80
2023/11/06 05:13:36;;;;;;;12.40;12.10;;;9.30;99.90;;;;;;5076343;28;20467;-81
2023/11/06 05:16:05;;;;;;;12.70;12.40;;;9.30;1.00;;;;;;5075657;28;20494;-81
2023/11/06 05:18:35;;;;;;;13.13;12.67;;;9.40;33.40;;;;;;5075090;28;20462;-81
2023/11/06 05:21:03;;;;;;;11.90;11.60;;;9.40;99.90;;;;;;5076419;28;20466;-82
2023/11/06 05:23:32;;;;;;;12.10;11.60;;;9.40;99.90;;;;;;5072342;28;20457;-80
2023/11/06 05:26:00;;;;;;;12.13;11.73;;;9.30;99.90;;;;;;5076557;28;20470;-81
2023/11/06 05:28:29;;;;;;;11.90;11.70;;;9.30;1.00;;;;;;5078615;28;20450;-83
2023/11/06 05:30:57;;;;;;;11.87;11.47;;;9.40;1.00;;;;;;5078202;28;20508;-79
2023/11/06 05:33:25;;;;;;;11.73;11.30;;;9.40;74.10;;;;;;5080160;28;20481;-82
2023/11/06 05:35:55;;;;;;;11.50;11.20;;;9.30;12.30;;;;;;5077776;28;20451;-81
2023/11/06 05:38:23;;;;;;;11.90;11.50;;;9.30;1.00;;;;;;5075809;28;20446;-78
2023/11/06 05:40:51;;;;;;;12.00;11.70;;;9.30;1.00;;;;;;5062843;28;20458;-80
2023/11/06 05:43:20;;;;;;;11.83;11.63;;;9.30;99.90;;;;;;5077160;28;20542;-80
2023/11/06 05:45:48;;;;;;;11.93;11.70;;;9.30;99.90;;;;;;5078784;28;20470;-78
2023/11/06 05:48:16;;;;;;;11.53;11.30;;;9.30;99.90;;;;;;5079742;28;20450;-80
2023/11/06 05:50:45;;;;;;;11.70;11.50;;;9.20;99.90;;;;;;5078338;28;20465;-80
2023/11/06 05:53:14;;;;;;;12.03;11.40;;;9.20;99.90;;;;;;5075737;28;20485;-78
2023/11/06 05:55:43;;;;;;;11.37;11.17;;;9.20;1.00;;;;;;5073973;28;20462;-82
2023/11/06 05:58:11;;;;;;;12.07;11.70;;;9.20;99.90;;;;;;5075377;28;20466;-80
2023/11/06 06:00:40;;;;;;;11.30;11.00;;;9.20;99.90;;;;;;5075805;28;20473;-81
2023/11/06 06:03:09;;;;;;;11.90;11.60;;;9.20;67.00;;;;;;5078010;28;20455;-81
2023/11/06 06:05:37;;;;;;;11.03;10.80;;;9.20;1.00;;;;;;5075005;28;20466;-80
2023/11/06 06:08:06;;;;;;;11.10;10.90;;;9.20;1.00;;;;;;5071613;28;21004;-82
2023/11/06 06:10:36;;;;;;;11.50;11.20;;;9.20;99.90;;;;;;5074416;28;20481;-77
2023/11/06 06:13:04;;;;;;;11.00;10.80;;;9.30;99.90;;;;;;5077893;28;20461;-81
2023/11/06 06:15:33;;;;;;;10.97;10.67;;;9.30;99.90;;;;;;5079243;28;21180;-78
2023/11/06 06:18:01;;;;;;;11.30;11.00;;;9.30;99.60;;;;;;5081082;28;20482;-79
2023/11/06 06:20:30;;;;;;;11.70;11.37;;;9.30;95.40;;;;;;5075037;28;20473;-78
2023/11/06 06:22:58;;;;;;;11.13;10.93;;;9.30;3.90;;;;;;5077341;28;20447;-76
2023/11/06 06:25:26;;;;;;;11.50;11.20;;;9.30;1.00;;;;;;5071189;28;21169;-78
2023/11/06 06:27:56;;;;;;;11.50;11.20;;;9.20;1.00;;;;;;5075930;28;20451;-77
2023/11/06 06:30:25;;;;;;;11.37;11.10;;;9.30;78.60;;;;;;5074320;28;20471;-78
2023/11/06 06:32:53;;;;;;;11.70;11.40;;;9.30;1.00;;;;;;5072297;28;21199;-78
2023/11/06 06:35:22;;;;;;;11.40;11.00;;;9.30;1.00;;;;;;5074305;28;20474;-81
2023/11/06 06:37:50;;;;;;;11.67;11.27;;;9.30;1.00;;;;;;5073806;28;20467;-80
2023/11/06 06:40:20;;;;;;;11.00;10.80;;;9.30;14.80;;;;;;5075566;28;20462;-78
2023/11/06 06:42:48;;;;;;;10.90;10.70;;;9.30;26.60;;;;;;5075118;28;20439;-79
2023/11/06 06:45:17;;;;;;;11.30;11.10;;;9.30;1.00;;;;;;5077357;28;20457;-77
2023/11/06 06:47:46;;;;;;;11.50;11.20;;;9.30;26.60;;;;;;5073796;28;20446;-79
2023/11/06 06:50:14;;;;;;;11.37;11.17;;;9.30;99.90;;;;;;5073041;28;20966;-80
2023/11/06 06:52:42;;;;;;;11.00;10.80;;;9.30;99.90;;;;;;5075251;28;20450;-78
2023/11/06 06:55:11;;;;;;;11.10;10.80;;;9.30;99.90;;;;;;5074312;28;20565;-80
2023/11/06 06:57:39;;;;;;;11.00;10.70;;;9.30;99.90;;;;;;5077874;28;20454;-79
2023/11/06 07:00:10;;;;;;;11.70;11.40;;;9.30;99.90;;;;;;5075805;28;21214;-79
2023/11/06 07:02:40;;;;;;;11.63;11.43;;;9.30;99.90;;;;;;5073889;28;20706;-81
2023/11/06 07:05:09;;;;;;;11.60;11.20;;;9.20;99.90;;;;;;5071585;28;20447;-82
2023/11/06 07:07:37;;;;;;;11.67;11.30;;;9.30;99.90;;;;;;5077755;28;20501;-79
2023/11/06 07:10:08;;;;;;;11.63;11.33;;;9.30;1.00;;;;;;5075704;28;20455;-79
2023/11/06 07:12:36;;;;;;;11.63;11.30;;;9.30;1.00;;;;;;5075591;28;20473;-80
2023/11/06 07:15:06;;;;;;;12.07;11.50;;;9.50;1.00;;;;;;5069786;28;20479;-80
2023/11/06 07:17:34;;;;;;;11.30;11.00;;;9.60;99.90;;;;;;5073041;28;20547;-80
2023/11/06 07:20:05;;;;;;;11.40;11.10;;;9.70;56.80;;;;;;5071449;28;20473;-80
2023/11/06 07:22:33;;;;;;;11.70;11.30;;;9.90;99.90;;;;;;5070990;28;21131;-79
2023/11/06 07:25:01;;;;;;;12.00;11.60;;;10.10;1.00;;;;;;5074197;28;20458;-79
2023/11/06 07:27:29;;;;;;;11.30;11.10;;;10.10;99.90;;;;;;5072070;28;20542;-77
2023/11/06 07:29:58;;;;;;;12.00;11.40;;;10.00;99.90;;;;;;5077152;28;20449;-78
2023/11/06 07:32:26;;;;;;;11.57;10.97;;;10.10;99.90;;;;;;5074506;28;21047;-80
2023/11/06 07:34:54;;;;;;;11.93;11.40;;;10.30;99.90;;;;;;5064776;28;20557;-78
2023/11/06 07:37:24;;;;;;;11.50;11.30;;;10.40;1.00;;;;;;5072655;28;20676;-81
2023/11/06 07:39:53;;;;;;;12.30;11.80;;;10.50;1.00;;;;;;5073470;28;20454;-80
2023/11/06 07:42:21;;;;;;;11.57;11.37;;;10.70;1.00;;;;;;5071047;28;20482;-81
2023/11/06 07:44:49;;;;;;;11.00;10.80;;;10.60;1.00;;;;;;5070846;28;20494;-80
2023/11/06 07:47:17;;;;;;;11.93;11.63;;;10.70;1.00;;;;;;5073454;28;20494;-77
2023/11/06 07:49:46;;;;;;;12.77;12.10;;;10.80;99.90;;;;;;5070966;28;20463;-79
2023/11/06 07:52:15;;;;;;;12.43;12.13;;;11.00;99.90;;;;;;5071011;28;20474;-79
2023/11/06 07:54:46;;;;;;;11.97;11.57;;;11.20;99.90;;;;;;5071891;28;20479;-78
2023/11/06 07:57:14;;;;;;;12.60;12.10;;;11.40;99.90;;;;;;5075140;28;20915;-78
2023/11/06 07:59:43;;;;;;;11.97;11.57;;;11.50;99.90;;;;;;5074993;28;20447;-80
2023/11/06 08:02:11;;;;;;;12.80;12.20;;;11.60;99.90;;;;;;5072085;28;20527;-79
2023/11/06 08:04:40;;;;;;;12.57;12.27;;;11.70;82.60;;;;;;5073206;28;20938;-77
2023/11/06 08:07:08;;;;;;;12.43;12.00;;;11.90;19.80;;;;;;5072738;28;20454;-80
2023/11/06 08:09:37;;;;;;;12.10;11.70;;;12.10;1.00;;;;;;5073751;28;20449;-80
2023/11/06 08:12:09;;;;;;;11.93;11.63;;;12.40;1.00;;;;;;5072493;28;20580;-78
2023/11/06 08:14:37;;;;;;;12.27;11.97;;;12.50;1.00;;;;;;5076478;28;20485;-85
2023/11/06 08:17:06;;;;;;;12.83;12.43;;;12.80;1.00;;;;;;5081593;28;20455;-84
2023/11/06 08:19:38;;;;;;;11.70;11.50;;;12.90;1.00;;;;;;5080946;28;20470;-83
2023/11/06 08:22:09;;;;;;;12.53;11.90;;;12.90;1.00;;;;;;5078995;28;20585;-85
2023/11/06 08:24:39;;;;;;;11.97;11.47;;;12.70;1.00;;;;;;5081994;28;20441;-83
2023/11/06 08:27:10;;;;;;;12.07;11.73;;;12.70;1.00;;;;;;5078105;28;20539;-82
2023/11/06 08:29:42;;;;;;;11.90;11.60;;;12.70;1.00;;;;;;5076877;28;20458;-79
2023/11/06 08:32:11;;;;;;;11.60;11.40;;;12.80;1.00;;;;;;5076540;28;20566;-79
2023/11/06 08:34:41;;;;;;;12.50;12.10;;;13.00;1.00;;;;;;5069528;28;20479;-79
2023/11/06 08:37:11;;;;;;;12.30;11.90;;;12.90;1.00;;;;;;5074925;28;20453;-79
2023/11/06 08:39:43;;;;;;;12.43;11.90;;;12.60;1.00;;;;;;5076914;28;20442;-79
2023/11/06 08:42:13;;;;;;;12.20;11.80;;;12.60;1.00;;;;;;5074183;28;21024;-78
2023/11/06 08:44:42;;;;;;;11.80;11.40;;;12.40;1.00;;;;;;5075999;28;20447;-78
2023/11/06 08:47:11;;;;;;;12.07;11.77;;;12.20;1.00;;;;;;5076051;28;20466;-81
2023/11/06 08:49:39;;;;;;;13.40;12.90;;;12.10;1.00;;;;;;5072706;28;20537;-82
2023/11/06 08:52:08;;;;;;;12.83;12.33;;;12.00;1.00;;;;;;5073646;28;20478;-79
2023/11/06 08:54:37;;;;;;;12.93;12.43;;;11.90;1.00;;;;;;5075832;28;20538;-79
2023/11/06 08:57:06;;;;;;;13.40;12.80;;;12.10;1.00;;;;;;5074667;28;20449;-80
2023/11/06 08:59:36;;;;;;;12.70;12.10;;;12.20;1.00;;;;;;5073936;28;20452;-81
2023/11/06 09:02:04;;;;;;;12.90;12.47;;;12.30;1.00;;;;;;5077370;28;21048;-79
2023/11/06 09:04:33;;;;;;;12.47;12.17;;;12.20;1.00;;;;;;5074779;28;20498;-81
2023/11/06 09:07:02;;;;;;;12.80;12.40;;;12.30;1.00;;;;;;5072082;28;20462;-81
2023/11/06 09:09:31;;;;;;;12.83;12.40;;;12.40;1.00;;;;;;5066275;28;20588;-78
2023/11/06 09:11:59;;;;;;;13.37;12.87;;;12.30;1.00;;;;;;5061868;28;20474;-80
2023/11/06 09:14:27;;;;;;;13.13;12.83;;;12.40;1.00;;;;;;5073048;28;20461;-78
2023/11/06 09:16:56;;;;;;;12.43;12.20;;;12.50;1.00;;;;;;5068933;28;20511;-79
2023/11/06 09:19:25;;;;;;;12.57;12.20;;;12.60;1.00;;;;;;5068949;28;20543;-79
2023/11/06 09:21:53;;;;;;;12.40;12.20;;;12.60;1.00;;;;;;5066732;28;20513;-78
2023/11/06 09:24:21;;;;;;;13.33;12.57;;;12.50;1.00;;;;;;5065316;28;20438;-78
2023/11/06 09:26:49;;;;;;;12.50;12.10;;;12.30;1.00;;;;;;5062287;28;20714;-79
2023/11/06 09:29:18;;;;;;;12.10;11.70;;;12.20;1.00;;;;;;5065950;28;21257;-80
2023/11/06 09:31:47;;;;;;;12.30;12.00;;;12.10;1.00;;;;;;5074439;28;20477;-81
2023/11/06 09:34:17;;;;;;;13.10;12.60;;;12.00;1.00;;;;;;5077915;28;21253;-79
2023/11/06 09:36:46;;;;;;;12.17;11.77;;;12.20;1.00;;;;;;5079257;28;20869;-80
2023/11/06 09:39:14;;;;;;;11.80;11.50;;;12.60;1.00;;;;;;5068519;28;20459;-79
2023/11/06 09:41:43;;;;;;;12.10;11.80;;;12.60;1.00;;;;;;5074149;28;20476;-79
2023/11/06 09:44:12;;;;;;;12.37;12.07;;;12.60;1.00;;;;;;5073841;28;20512;-80
2023/11/06 09:46:41;;;;;;;12.63;12.30;;;12.80;1.00;;;;;;5074424;28;20458;-79
2023/11/06 09:49:17;;;;;;;12.47;12.27;;;13.50;1.00;;;;;;5077150;28;20597;-80
2023/11/06 09:51:51;;;;;;;13.10;12.80;;;15.00;99.90;;;;;;5076193;28;20482;-79
2023/11/06 09:54:24;;;;;;;13.03;12.50;;;16.60;99.90;;;;;;5072108;28;20446;-79
2023/11/06 09:56:54;;;;;;;11.97;11.73;;;17.30;99.90;;;;;;5076450;28;20466;-80
2023/11/06 09:59:23;;;;;;;12.60;12.30;;;16.40;99.90;;;;;;5073066;28;20477;-79
2023/11/06 10:01:54;;;;;;;13.07;12.67;;;15.70;99.90;;;;;;5076574;28;20482;-81
2023/11/06 10:04:24;;;;;;;12.40;12.10;;;15.00;99.90;;;;;;5072663;28;20578;-82
2023/11/06 10:06:53;;;;;;;12.53;12.33;;;15.50;99.90;;;;;;5074394;28;20530;-79
2023/11/06 10:09:23;;;;;;;12.50;12.20;;;17.70;99.90;;;;;;5075697;28;20447;-79
2023/11/06 10:11:57;;;;;;;13.23;12.83;;;18.90;99.90;;;;;;5069394;28;20552;-79
2023/11/06 10:14:37;;;;;;;13.07;12.67;;;18.50;99.90;;;;;;5076622;28;20455;-81
2023/11/06 10:17:06;;;;;;;12.33;11.90;;;17.40;99.90;;;;;;5076017;28;20820;-79
2023/11/06 10:19:35;;;;;;;12.30;11.90;;;16.30;99.90;;;;;;5072271;28;20444;-79
2023/11/06 10:22:15;;;;;;;11.90;11.60;;;16.80;99.90;;;;;;5077071;28;20510;-79
2023/11/06 10:24:50;;;;;;;11.57;11.27;;;16.40;99.90;;;;;;5075916;28;20495;-80
2023/11/06 10:27:25;;;;;;;11.53;11.23;;;15.50;99.90;;;;;;5076464;28;20438;-79
2023/11/06 10:30:00;;;;;;;11.27;11.07;;;15.10;99.90;;;;;;5075119;28;21024;-80
2023/11/06 10:32:28;;;;;;;11.20;11.00;;;14.60;99.90;;;;;;5073705;28;20466;-79
2023/11/06 10:35:01;;;;;;;11.50;11.30;;;14.30;99.90;;;;;;5073184;28;20559;-78
2023/11/06 10:37:39;;;;;;;11.30;11.10;;;13.80;99.90;;;;;;5078638;28;20524;-80
2023/11/06 10:40:12;;;;;;;11.47;11.17;;;13.90;99.90;;;;;;5076437;28;20465;-78
2023/11/06 10:42:45;;;;;;;11.10;10.90;;;13.80;99.90;;;;;;5073695;28;20501;-79
2023/11/06 10:45:14;;;;;;;11.77;11.37;;;13.80;99.90;;;;;;5076577;28;20800;-79
2023/11/06 10:47:46;;;;;;;11.27;11.00;;;13.70;99.90;;;;;;5070355;28;20473;-80
2023/11/06 10:50:21;;;;;;;11.43;11.23;;;13.70;99.90;;;;;;5072836;28;20517;-82
2023/11/06 10:52:53;;;;;;;11.13;10.93;;;13.70;99.90;;;;;;5072580;28;20520;-81
2023/11/06 10:55:23;;;;;;;11.80;11.40;;;13.60;99.90;;;;;;5071096;28;21090;-79
2023/11/06 10:58:01;;;;;;;10.40;10.20;;;13.40;99.90;;;;;;5072201;28;20459;-79
2023/11/06 11:00:31;;;;;;;10.83;10.60;;;13.30;99.90;;;;;;5077797;28;20478;-81
2023/11/06 11:03:01;;;;;;;11.53;11.13;;;13.30;99.90;;;;;;5079972;28;20458;-81
2023/11/06 11:05:33;;;;;;;11.57;11.20;;;13.20;99.90;;;;;;5076601;28;20482;-80
2023/11/06 11:08:06;;;;;;;11.73;11.40;;;13.20;99.90;;;;;;5079748;28;20540;-80
2023/11/06 11:10:34;;;;;;;11.60;11.30;;;13.20;99.90;;;;;;5075014;28;20996;-79
2023/11/06 11:13:03;;;;;;;11.37;11.07;;;13.10;99.90;;;;;;5076251;28;20447;-81
2023/11/06 11:15:34;;;;;;;10.10;9.90;;;13.00;99.90;;;;;;5074625;28;20462;-81
2023/11/06 11:18:04;;;;;;;10.80;10.40;;;13.00;99.90;;;;;;5070252;28;20533;-80
2023/11/06 11:20:52;;;;;;;10.50;10.10;;;12.90;99.90;;;;;;5070919;28;20493;-81
2023/11/06 11:23:38;;;;;;;10.57;10.27;;;12.80;99.90;;;;;;5071426;28;20513;-81
2023/11/06 11:26:10;;;;;;;10.53;10.23;;;12.90;99.90;;;;;;5075799;28;20467;-80
2023/11/06 11:28:56;;;;;;;10.70;10.40;;;12.90;99.90;;;;;;5072444;28;20459;-79
2023/11/06 11:31:33;;;;;;;10.20;10.00;;;12.90;99.90;;;;;;5072492;28;20470;-79
2023/11/06 11:34:02;;;;;;;10.47;10.17;;;13.00;99.90;;;;;;5071069;28;20451;-79
2023/11/06 11:36:32;;;;;;;10.60;10.30;;;13.00;99.90;;;;;;5069546;28;20463;-80
2023/11/06 11:39:06;;;;;;;9.90;9.70;;;13.00;99.90;;;;;;5070779;28;20447;-80
2023/11/06 11:41:34;;;;;;;10.40;10.20;;;12.90;99.90;;;;;;5071049;28;20560;-79
2023/11/06 11:44:08;;;;;;;10.97;10.70;;;12.90;99.90;;;;;;5069933;28;20474;-80
2023/11/06 11:47:00;;;;;;;10.40;10.20;;;12.80;99.90;;;;;;5072631;28;20463;-82
2023/11/06 11:49:46;;;;;;;10.60;10.40;;;13.00;99.90;;;;;;5074741;28;20458;-80
2023/11/06 11:52:35;;;;;;;11.07;10.77;;;13.20;99.90;;;;;;5071173;28;20467;-79
2023/11/06 11:55:34;;;;;;;10.37;10.17;;;13.30;99.90;;;;;;5072872;28;20531;-81
2023/11/06 11:58:06;;;;;;;11.10;10.80;;;13.40;99.90;;;;;;5073843;28;20466;-82
2023/11/06 12:00:36;;;;;;;11.00;10.80;;;13.50;99.90;;;;;;5071981;28;20478;-81
2023/11/06 12:03:08;;;;;;;10.90;10.70;;;13.70;99.90;;;;;;5072396;28;20511;-82
2023/11/06 12:05:38;;;;;;;11.60;11.30;;;13.60;99.90;;;;;;5072074;28;20462;-81
2023/11/06 12:08:17;;;;;;;11.67;11.37;;;13.60;99.90;;;;;;5068288;28;20967;-81
2023/11/06 12:10:48;;;;;;;11.70;11.40;;;13.80;99.90;;;;;;5072740;28;20480;-81
2023/11/06 12:13:18;;;;;;;12.03;11.63;;;13.90;99.90;;;;;;5077814;28;20558;-81
2023/11/06 12:15:47;;;;;;;11.20;11.00;;;13.80;99.90;;;;;;5071535;28;20511;-80
2023/11/06 12:18:16;;;;;;;11.23;10.93;;;13.80;99.90;;;;;;5069560;28;21445;-79
2023/11/06 12:20:46;;;;;;;11.10;10.90;;;13.90;99.90;;;;;;5072246;28;20470;-79
2023/11/06 12:23:17;;;;;;;10.80;10.50;;;13.60;99.90;;;;;;5072447;28;20917;-79
2023/11/06 12:25:49;;;;;;;10.00;9.80;;;13.50;99.90;;;;;;5073241;28;20454;-81
2023/11/06 12:28:20;;;;;;;10.40;10.20;;;13.50;99.90;;;;;;5074534;28;21283;-81
2023/11/06 12:30:54;;;;;;;10.30;10.10;;;13.40;99.90;;;;;;5073813;28;20478;-78
2023/11/06 12:33:24;;;;;;;10.67;10.37;;;13.40;99.90;;;;;;5069962;28;20443;-81
2023/11/06 12:35:55;;;;;;;10.43;10.20;;;13.30;99.90;;;;;;5071032;28;20865;-81
2023/11/06 12:38:33;;;;;;;10.10;9.70;;;13.20;99.90;;;;;;5073582;28;21533;-81
2023/11/06 12:41:04;;;;;;;10.20;9.90;;;13.10;99.90;;;;;;5070698;28;20583;-81
2023/11/06 12:43:34;;;;;;;10.27;9.97;;;13.20;99.90;;;;;;5075028;28;20550;-81
2023/11/06 12:46:03;;;;;;;10.47;10.27;;;13.10;99.90;;;;;;5069968;28;20542;-81
2023/11/06 12:48:34;;;;;;;9.90;9.70;;;13.10;99.90;;;;;;5076327;28;20465;-81
2023/11/06 12:51:09;;;;;;;9.80;9.60;;;13.00;99.90;;;;;;5074051;28;20467;-81